createdAt,value
2023-06-19T00:02:17.096Z,21.17
2023-06-19T00:04:48.169Z,21.11
2023-06-19T00:07:16.223Z,21.13
2023-06-19T00:09:44.216Z,21.10
2023-06-19T00:12:12.544Z,21.05
2023-06-19T00:14:40.547Z,21.07
2023-06-19T00:17:08.813Z,21.10
2023-06-19T00:19:37.757Z,21.07
2023-06-19T00:22:07.804Z,21.11
2023-06-19T00:24:37.860Z,21.08
2023-06-19T00:27:06.853Z,21.04
2023-06-19T00:29:36.013Z,21.08
2023-06-19T00:32:04.114Z,21.08
2023-06-19T00:34:32.818Z,21.06
2023-06-19T00:37:01.487Z,21.03
2023-06-19T00:39:32.080Z,21.02
2023-06-19T00:41:59.942Z,21.02
2023-06-19T00:44:27.927Z,20.98
2023-06-19T00:47:01.246Z,20.92
2023-06-19T00:49:32.469Z,20.89
2023-06-19T00:52:00.801Z,20.96
2023-06-19T00:54:32.146Z,20.97
2023-06-19T00:57:00.588Z,20.96
2023-06-19T00:59:29.960Z,20.99
2023-06-19T01:02:01.977Z,20.99
2023-06-19T01:04:30.122Z,20.98
2023-06-19T01:07:11.425Z,21.00
2023-06-19T01:09:48.449Z,21.03
2023-06-19T01:12:20.998Z,21.01
2023-06-19T01:14:55.203Z,21.01
2023-06-19T01:17:24.165Z,20.97
2023-06-19T01:19:52.200Z,20.94
2023-06-19T01:22:29.302Z,20.89
2023-06-19T01:24:58.446Z,20.91
2023-06-19T01:27:31.070Z,20.84
2023-06-19T01:29:59.517Z,20.74
2023-06-19T01:32:33.771Z,20.75
2023-06-19T01:35:04.857Z,20.73
2023-06-19T01:37:35.359Z,20.74
2023-06-19T01:40:07.904Z,20.72
2023-06-19T01:42:43.131Z,20.72
2023-06-19T01:45:12.758Z,20.72
2023-06-19T01:47:40.786Z,20.80
2023-06-19T01:50:11.202Z,20.77
2023-06-19T01:52:41.264Z,20.70
2023-06-19T01:55:11.788Z,20.65
2023-06-19T01:57:40.764Z,20.59
2023-06-19T02:00:12.853Z,20.72
2023-06-19T02:02:41.056Z,20.71
2023-06-19T02:05:10.282Z,20.66
2023-06-19T02:07:38.230Z,20.65
2023-06-19T02:10:10.156Z,20.67
2023-06-19T02:12:38.092Z,20.71
2023-06-19T02:15:07.673Z,20.76
2023-06-19T02:17:35.611Z,20.86
2023-06-19T02:20:08.863Z,20.86
2023-06-19T02:22:36.850Z,20.88
2023-06-19T02:25:05.235Z,20.96
2023-06-19T02:27:36.990Z,20.93
2023-06-19T02:30:06.144Z,20.90
2023-06-19T02:32:34.107Z,20.77
2023-06-19T02:35:02.441Z,20.81
2023-06-19T02:37:30.833Z,20.92
2023-06-19T02:39:59.108Z,20.85
2023-06-19T02:42:27.234Z,20.87
2023-06-19T02:45:04.146Z,20.83
2023-06-19T02:47:32.645Z,20.85
2023-06-19T02:50:01.848Z,20.84
2023-06-19T02:52:29.952Z,20.92
2023-06-19T02:54:58.039Z,21.02
2023-06-19T02:57:26.034Z,21.06
2023-06-19T02:59:54.413Z,21.13
2023-06-19T03:02:23.909Z,21.05
2023-06-19T03:04:51.980Z,21.21
2023-06-19T03:07:20.241Z,21.22
2023-06-19T03:09:48.332Z,21.26
2023-06-19T03:12:16.415Z,21.32
2023-06-19T03:14:44.338Z,21.32
2023-06-19T03:17:12.424Z,21.35
2023-06-19T03:19:43.161Z,21.27
2023-06-19T03:22:11.686Z,21.32
2023-06-19T03:24:40.019Z,21.23
2023-06-19T03:27:13.822Z,21.29
2023-06-19T03:29:44.283Z,21.22
2023-06-19T03:32:12.141Z,21.27
2023-06-19T03:34:42.439Z,21.32
2023-06-19T03:37:10.582Z,21.36
2023-06-19T03:39:38.916Z,21.49
2023-06-19T03:42:07.654Z,21.40
2023-06-19T03:44:35.977Z,21.44
2023-06-19T03:47:06.503Z,21.42
2023-06-19T03:49:34.291Z,21.37
2023-06-19T03:52:04.249Z,21.34
2023-06-19T03:54:32.160Z,21.27
2023-06-19T03:57:01.372Z,21.19
2023-06-19T03:59:30.336Z,21.05
2023-06-19T04:01:59.537Z,20.99
2023-06-19T04:04:27.523Z,20.91
2023-06-19T04:06:55.405Z,20.99
2023-06-19T04:09:24.898Z,20.98
2023-06-19T04:11:52.838Z,20.95
2023-06-19T04:14:21.108Z,20.92
2023-06-19T04:16:49.532Z,20.88
2023-06-19T04:19:17.409Z,20.87
2023-06-19T04:21:45.283Z,20.79
2023-06-19T04:24:13.336Z,20.72
2023-06-19T04:26:43.494Z,20.75
2023-06-19T04:29:17.880Z,20.73
2023-06-19T04:31:47.992Z,20.70
2023-06-19T04:34:18.381Z,20.70
2023-06-19T04:36:46.614Z,20.70
2023-06-19T04:39:14.657Z,20.73
2023-06-19T04:41:45.555Z,20.70
2023-06-19T04:44:13.765Z,20.74
2023-06-19T04:46:42.491Z,20.72
2023-06-19T04:49:10.480Z,20.70
2023-06-19T04:51:38.912Z,20.68
2023-06-19T04:54:07.934Z,20.68
2023-06-19T04:56:37.303Z,20.66
2023-06-19T04:59:07.949Z,20.66
2023-06-19T05:01:36.623Z,20.64
2023-06-19T05:04:05.096Z,20.58
2023-06-19T05:06:33.296Z,20.60
2023-06-19T05:09:01.245Z,20.63
2023-06-19T05:11:30.530Z,20.67
2023-06-19T05:13:59.595Z,20.64
2023-06-19T05:16:30.109Z,20.63
2023-06-19T05:19:04.670Z,20.71
2023-06-19T05:21:34.589Z,20.70
2023-06-19T05:24:02.465Z,20.88
2023-06-19T05:26:30.549Z,21.02
2023-06-19T05:28:58.495Z,21.26
2023-06-19T05:31:26.502Z,21.24
2023-06-19T05:33:56.721Z,21.25
2023-06-19T05:36:24.886Z,21.43
2023-06-19T05:38:52.722Z,21.27
2023-06-19T05:41:20.880Z,21.31
2023-06-19T05:43:48.856Z,21.23
2023-06-19T05:46:17.959Z,21.13
2023-06-19T05:48:46.167Z,21.25
2023-06-19T05:51:16.411Z,21.11
2023-06-19T05:53:48.035Z,20.91
2023-06-19T05:56:15.973Z,21.03
2023-06-19T05:58:44.167Z,20.99
2023-06-19T06:01:12.363Z,21.00
2023-06-19T06:03:40.391Z,21.13
2023-06-19T06:06:08.252Z,21.24
2023-06-19T06:08:37.694Z,21.28
2023-06-19T06:11:05.675Z,21.29
2023-06-19T06:13:33.527Z,21.42
2023-06-19T06:16:01.334Z,21.58
2023-06-19T06:18:29.206Z,21.57
2023-06-19T06:20:57.117Z,21.38
2023-06-19T06:23:24.905Z,21.33
2023-06-19T06:25:54.293Z,21.22
2023-06-19T06:28:22.090Z,21.25
2023-06-19T06:30:54.045Z,21.27
2023-06-19T06:33:29.118Z,21.22
2023-06-19T06:36:06.472Z,21.16
2023-06-19T06:38:41.666Z,20.99
2023-06-19T06:41:10.882Z,20.84
2023-06-19T06:48:05.777Z,20.68
2023-06-19T06:51:35.061Z,20.55
2023-06-19T06:57:45.013Z,20.47
2023-06-19T07:00:15.069Z,20.53
2023-06-19T07:02:44.381Z,20.42
2023-06-19T07:06:01.399Z,20.36
2023-06-19T07:08:29.316Z,20.33
2023-06-19T07:10:57.131Z,20.25
2023-06-19T07:13:27.370Z,20.14
2023-06-19T07:15:56.224Z,20.10
2023-06-19T07:18:26.138Z,20.06
2023-06-19T07:20:59.959Z,20.29
2023-06-19T07:23:27.829Z,20.46
2023-06-19T07:25:55.670Z,20.71
2023-06-19T07:28:23.580Z,20.81
2023-06-19T07:30:53.374Z,20.88
2023-06-19T07:33:21.352Z,20.60
2023-06-19T07:35:49.280Z,20.43
2023-06-19T07:38:17.514Z,20.50
2023-06-19T07:40:45.883Z,20.68
2023-06-19T07:43:14.017Z,20.81
2023-06-19T07:45:43.297Z,20.68
2023-06-19T07:48:15.084Z,20.60
2023-06-19T07:50:43.035Z,20.50
2023-06-19T07:53:11.224Z,20.28
2023-06-19T07:55:41.368Z,20.28
2023-06-19T07:58:10.141Z,20.24
2023-06-19T08:00:39.253Z,20.22
2023-06-19T08:03:07.738Z,20.14
2023-06-19T08:05:37.031Z,20.13
2023-06-19T08:08:05.219Z,20.15
2023-06-19T08:10:33.356Z,20.27
2023-06-19T08:13:01.653Z,20.44
2023-06-19T08:15:29.670Z,20.52
2023-06-19T08:17:57.984Z,20.50
2023-06-19T08:20:26.387Z,20.46
2023-06-19T08:22:57.167Z,20.55
2023-06-19T08:25:25.176Z,20.41
2023-06-19T08:27:53.235Z,20.73
2023-06-19T08:30:21.119Z,20.67
2023-06-19T08:32:50.166Z,20.86
2023-06-19T08:35:18.319Z,20.69
2023-06-19T08:37:47.184Z,20.84
2023-06-19T08:40:16.408Z,20.77
2023-06-19T08:42:45.057Z,20.61
2023-06-19T08:45:13.574Z,20.33
2023-06-19T08:47:41.827Z,20.35
2023-06-19T08:50:10.378Z,20.33
2023-06-19T08:52:39.082Z,20.23
2023-06-19T08:55:08.536Z,20.21
2023-06-19T08:57:40.260Z,20.30
2023-06-19T09:00:11.667Z,20.30
2023-06-19T09:02:45.274Z,20.40
2023-06-19T09:05:17.293Z,20.46
2023-06-19T09:07:46.196Z,20.55
2023-06-19T09:10:17.710Z,20.83
2023-06-19T09:12:58.190Z,21.47
2023-06-19T09:15:29.111Z,23.05
2023-06-19T09:18:10.692Z,22.83
2023-06-19T09:20:45.952Z,22.87
2023-06-19T09:23:14.395Z,22.35
2023-06-19T09:25:48.964Z,21.60
2023-06-19T09:28:22.193Z,21.39
2023-06-19T09:30:59.785Z,21.08
2023-06-19T09:33:28.865Z,21.05
2023-06-19T09:35:57.695Z,21.39
2023-06-19T09:38:28.194Z,21.68
2023-06-19T09:40:59.338Z,21.84
2023-06-19T09:43:35.454Z,21.66
2023-06-19T09:46:07.835Z,21.53
2023-06-19T09:48:37.174Z,21.62
2023-06-19T09:51:14.431Z,21.65
2023-06-19T09:53:42.563Z,21.81
2023-06-19T09:56:13.767Z,22.21
2023-06-19T09:58:48.463Z,22.17
2023-06-19T10:01:19.486Z,22.14
2023-06-19T10:03:48.416Z,22.22
2023-06-19T10:06:18.371Z,22.33
2023-06-19T10:08:47.486Z,22.16
2023-06-19T10:11:16.308Z,22.19
2023-06-19T10:13:47.647Z,22.28
2023-06-19T10:16:23.050Z,21.97
2023-06-19T10:18:51.247Z,21.68
2023-06-19T10:21:21.170Z,21.82
2023-06-19T10:23:56.111Z,21.74
2023-06-19T10:26:32.456Z,22.27
2023-06-19T10:29:02.134Z,22.11
2023-06-19T10:31:30.717Z,22.46
2023-06-19T10:33:59.205Z,22.41
2023-06-19T10:36:28.451Z,23.10
2023-06-19T10:38:56.506Z,22.82
2023-06-19T10:41:26.072Z,22.83
2023-06-19T10:43:58.650Z,22.69
2023-06-19T10:46:32.189Z,22.59
2023-06-19T10:49:02.508Z,22.17
2023-06-19T10:51:40.559Z,22.07
2023-06-19T10:54:15.678Z,21.96
2023-06-19T10:56:54.083Z,21.79
2023-06-19T10:59:22.497Z,22.34
2023-06-19T11:01:52.820Z,22.54
2023-06-19T11:04:20.723Z,22.01
2023-06-19T11:06:49.649Z,22.36
2023-06-19T11:09:33.844Z,22.55
2023-06-19T11:12:12.802Z,22.97
2023-06-19T11:14:42.988Z,22.64
2023-06-19T11:17:12.582Z,23.16
2023-06-19T11:19:43.454Z,23.77
2023-06-19T11:22:12.226Z,24.11
2023-06-19T11:24:45.778Z,24.78
2023-06-19T11:27:25.617Z,24.45
2023-06-19T11:29:57.538Z,24.39
2023-06-19T11:32:33.206Z,24.54
2023-06-19T11:35:08.780Z,23.65
2023-06-19T11:37:37.799Z,23.66
2023-06-19T11:40:13.043Z,24.65
2023-06-19T11:42:51.181Z,25.16
2023-06-19T11:45:19.267Z,24.56
2023-06-19T11:47:49.190Z,25.49
2023-06-19T11:50:17.862Z,25.87
2023-06-19T11:52:46.826Z,25.17
2023-06-19T11:55:17.998Z,24.83
2023-06-19T11:57:48.445Z,23.71
2023-06-19T12:00:18.628Z,23.48
2023-06-19T12:02:50.818Z,23.69
2023-06-19T12:05:18.904Z,23.44
2023-06-19T12:07:47.180Z,22.92
2023-06-19T12:10:16.014Z,23.30
2023-06-19T12:12:43.910Z,25.50
2023-06-19T12:15:11.967Z,25.58
2023-06-19T12:17:39.961Z,23.60
2023-06-19T12:20:14.720Z,23.85
2023-06-19T12:22:43.673Z,23.29
2023-06-19T12:25:12.205Z,23.60
2023-06-19T12:27:42.732Z,23.54
2023-06-19T12:30:11.708Z,24.05
2023-06-19T12:32:40.585Z,24.81
2023-06-19T12:35:10.934Z,24.79
2023-06-19T12:37:38.928Z,25.58
2023-06-19T12:40:10.766Z,25.53
2023-06-19T12:42:39.255Z,25.02
2023-06-19T12:45:09.415Z,24.13
2023-06-19T12:47:37.626Z,23.97
2023-06-19T12:50:06.276Z,24.62
2023-06-19T12:52:35.829Z,24.99
2023-06-19T12:55:04.295Z,25.01
2023-06-19T12:57:33.742Z,25.04
2023-06-19T13:00:05.480Z,25.67
2023-06-19T13:02:33.687Z,25.55
2023-06-19T13:05:01.850Z,25.19
2023-06-19T13:07:29.898Z,25.70
2023-06-19T13:10:02.039Z,25.07
2023-06-19T13:12:30.065Z,25.23
2023-06-19T13:14:58.065Z,27.06
2023-06-19T13:17:26.295Z,27.00
2023-06-19T13:19:54.475Z,26.34
2023-06-19T13:22:25.018Z,25.66
2023-06-19T13:24:54.238Z,25.22
2023-06-19T13:27:24.726Z,25.40
2023-06-19T13:29:52.634Z,25.75
2023-06-19T13:32:20.477Z,25.08
2023-06-19T13:34:48.690Z,26.22
2023-06-19T13:37:16.743Z,27.80
2023-06-19T13:39:44.666Z,27.34
2023-06-19T13:42:12.912Z,25.91
2023-06-19T13:44:51.197Z,25.52
2023-06-19T13:47:20.424Z,26.33
2023-06-19T13:50:07.578Z,25.74
2023-06-19T13:52:50.350Z,27.28
2023-06-19T13:55:26.646Z,26.84
2023-06-19T13:58:19.394Z,28.23
2023-06-19T14:01:36.038Z,28.64
2023-06-19T14:04:06.466Z,28.06
2023-06-19T14:07:27.910Z,27.15
2023-06-19T14:09:58.204Z,28.19
2023-06-19T14:12:26.748Z,27.59
2023-06-19T14:14:54.862Z,28.14
2023-06-19T14:17:23.086Z,28.81
2023-06-19T14:19:56.621Z,29.17
2023-06-19T14:22:25.506Z,28.80
2023-06-19T14:24:59.667Z,27.36
2023-06-19T14:27:34.878Z,27.64
2023-06-19T14:30:02.976Z,27.39
2023-06-19T14:32:31.202Z,27.78
2023-06-19T14:35:00.615Z,27.02
2023-06-19T14:37:28.839Z,28.00
2023-06-19T14:39:57.055Z,28.72
2023-06-19T14:42:25.073Z,28.64
2023-06-19T14:44:55.465Z,28.56
2023-06-19T14:47:23.513Z,28.21
2023-06-19T14:49:51.485Z,26.74
2023-06-19T14:52:23.224Z,26.84
2023-06-19T14:54:51.074Z,27.45
2023-06-19T14:57:19.564Z,26.86
2023-06-19T14:59:48.114Z,27.06
2023-06-19T15:02:16.172Z,27.55
2023-06-19T15:04:57.073Z,26.73
2023-06-19T15:07:33.346Z,27.62
2023-06-19T15:10:01.500Z,28.28
2023-06-19T15:12:29.644Z,28.08
2023-06-19T15:14:57.618Z,27.34
2023-06-19T15:17:25.601Z,28.45
2023-06-19T15:19:53.698Z,27.73
2023-06-19T15:22:21.672Z,27.60
2023-06-19T15:24:51.067Z,28.84
2023-06-19T15:27:19.065Z,28.69
2023-06-19T15:29:47.196Z,28.16
2023-06-19T15:32:15.190Z,28.17
2023-06-19T15:34:43.415Z,26.71
2023-06-19T15:37:12.158Z,27.87
2023-06-19T15:39:40.206Z,27.50
2023-06-19T15:42:10.411Z,26.55
2023-06-19T15:44:38.691Z,27.74
2023-06-19T15:47:07.734Z,29.15
2023-06-19T15:49:38.671Z,28.76
2023-06-19T15:52:10.761Z,28.36
2023-06-19T15:54:40.543Z,28.09
2023-06-19T15:57:10.178Z,28.71
2023-06-19T15:59:38.065Z,28.50
2023-06-19T16:02:06.176Z,28.10
2023-06-19T16:04:34.184Z,28.60
2023-06-19T16:07:03.221Z,28.85
2023-06-19T16:09:39.738Z,28.75
2023-06-19T16:12:15.807Z,28.65
2023-06-19T16:14:43.896Z,28.02
2023-06-19T16:17:12.027Z,29.01
2023-06-19T16:19:41.853Z,28.13
2023-06-19T16:22:12.124Z,27.92
2023-06-19T16:24:41.288Z,27.56
2023-06-19T16:27:11.736Z,27.69
2023-06-19T16:29:41.423Z,27.78
2023-06-19T16:32:11.069Z,27.53
2023-06-19T16:34:39.722Z,28.27
2023-06-19T16:37:13.634Z,27.42
2023-06-19T16:39:41.646Z,27.52
2023-06-19T16:42:16.694Z,28.60
2023-06-19T16:44:46.185Z,28.46
2023-06-19T16:47:16.147Z,29.26
2023-06-19T16:49:57.485Z,29.68
2023-06-19T16:52:31.697Z,29.10
2023-06-19T16:55:02.755Z,28.48
2023-06-19T16:57:33.593Z,28.91
2023-06-19T17:00:04.520Z,28.35
2023-06-19T17:02:32.699Z,27.26
2023-06-19T17:05:00.863Z,27.75
2023-06-19T17:07:28.857Z,28.50
2023-06-19T17:09:56.740Z,28.37
2023-06-19T17:12:24.660Z,26.98
2023-06-19T17:14:52.681Z,26.96
2023-06-19T17:17:22.392Z,26.74
2023-06-19T17:19:50.476Z,27.41
2023-06-19T17:22:18.306Z,28.64
2023-06-19T17:24:46.335Z,27.60
2023-06-19T17:27:14.259Z,27.80
2023-06-19T17:29:42.191Z,27.99
2023-06-19T17:32:10.979Z,29.40
2023-06-19T17:34:40.435Z,29.33
2023-06-19T17:37:10.733Z,28.11
2023-06-19T17:39:38.770Z,26.77
2023-06-19T17:42:09.301Z,25.43
2023-06-19T17:44:37.291Z,25.31
2023-06-19T17:47:06.374Z,25.26
2023-06-19T17:49:34.411Z,24.92
2023-06-19T17:52:03.754Z,24.83
2023-06-19T17:54:31.692Z,24.98
2023-06-19T17:57:00.158Z,25.25
2023-06-19T17:59:29.213Z,25.80
2023-06-19T18:01:57.158Z,26.20
2023-06-19T18:04:25.958Z,25.63
2023-06-19T18:06:53.906Z,25.46
2023-06-19T18:09:23.900Z,24.68
2023-06-19T18:11:51.891Z,24.38
2023-06-19T18:14:21.769Z,24.04
2023-06-19T18:16:50.206Z,24.09
2023-06-19T18:19:18.297Z,24.77
2023-06-19T18:21:46.259Z,25.20
2023-06-19T18:24:14.309Z,25.57
2023-06-19T18:26:43.926Z,25.31
2023-06-19T18:29:11.842Z,25.35
2023-06-19T18:31:40.548Z,24.90
2023-06-19T18:34:11.036Z,25.01
2023-06-19T18:36:38.944Z,24.78
2023-06-19T18:39:07.278Z,24.22
2023-06-19T18:41:35.391Z,24.41
2023-06-19T18:44:04.742Z,23.98
2023-06-19T18:46:32.766Z,23.87
2023-06-19T18:49:02.000Z,23.72
2023-06-19T18:51:29.971Z,23.72
2023-06-19T18:53:57.823Z,23.28
2023-06-19T18:56:25.843Z,23.01
2023-06-19T18:58:53.929Z,22.75
2023-06-19T19:01:23.322Z,22.41
2023-06-19T19:03:51.441Z,22.21
2023-06-19T19:06:19.597Z,21.90
2023-06-19T19:08:47.660Z,21.73
2023-06-19T19:11:16.668Z,21.52
2023-06-19T19:13:45.309Z,21.31
2023-06-19T19:16:13.195Z,21.14
2023-06-19T19:18:42.645Z,20.98
2023-06-19T19:21:10.542Z,20.73
2023-06-19T19:23:38.600Z,20.61
2023-06-19T19:26:07.673Z,20.47
2023-06-19T19:28:36.835Z,20.30
2023-06-19T19:31:05.299Z,20.15
2023-06-19T19:33:33.163Z,20.02
2023-06-19T19:36:03.255Z,19.69
2023-06-19T19:38:31.152Z,19.54
2023-06-19T19:41:00.023Z,19.36
2023-06-19T19:43:27.965Z,19.15
2023-06-19T19:45:56.135Z,18.99
2023-06-19T19:48:24.215Z,18.92
2023-06-19T19:50:52.194Z,18.69
2023-06-19T19:53:21.667Z,18.52
2023-06-19T19:55:50.220Z,18.42
2023-06-19T19:58:18.332Z,18.31
2023-06-19T20:00:50.666Z,18.26
2023-06-19T20:03:18.996Z,18.05
2023-06-19T20:05:47.329Z,17.79
2023-06-19T20:08:15.320Z,17.70
2023-06-19T20:10:46.565Z,17.62
2023-06-19T20:13:14.618Z,17.46
2023-06-19T20:15:42.751Z,17.32
2023-06-19T20:18:10.752Z,17.28
2023-06-19T20:20:38.793Z,17.09
2023-06-19T20:23:07.578Z,17.11
2023-06-19T20:25:35.906Z,17.03
2023-06-19T20:28:08.422Z,16.94
2023-06-19T20:30:37.346Z,16.84
2023-06-19T20:33:05.614Z,16.73
2023-06-19T20:35:33.621Z,16.59
2023-06-19T20:38:02.152Z,16.59
2023-06-19T20:40:30.109Z,16.66
2023-06-19T20:43:00.534Z,16.82
2023-06-19T20:45:29.863Z,16.83
2023-06-19T20:47:58.863Z,16.86
2023-06-19T20:50:28.252Z,16.77
2023-06-19T20:52:56.394Z,16.70
2023-06-19T20:55:24.269Z,16.77
2023-06-19T20:57:52.213Z,16.68
2023-06-19T21:00:34.346Z,16.48
2023-06-19T21:03:04.246Z,16.56
2023-06-19T21:05:41.426Z,16.31
2023-06-19T21:08:10.411Z,16.10
2023-06-19T21:10:38.808Z,16.07
2023-06-19T21:13:28.304Z,16.27
2023-06-19T21:16:01.648Z,16.22
2023-06-19T21:18:37.547Z,16.03
2023-06-19T21:21:11.322Z,16.00
2023-06-19T21:23:40.187Z,15.85
2023-06-19T21:26:14.842Z,16.01
2023-06-19T21:28:44.789Z,15.94
2023-06-19T21:31:16.097Z,16.02
2023-06-19T21:33:44.021Z,15.97
2023-06-19T21:36:12.090Z,16.04
2023-06-19T21:38:42.155Z,16.43
2023-06-19T21:41:14.119Z,16.26
2023-06-19T21:43:42.517Z,16.19
2023-06-19T21:46:12.756Z,16.10
2023-06-19T21:48:42.326Z,16.40
2023-06-19T21:51:10.396Z,16.32
2023-06-19T21:53:39.658Z,16.20
2023-06-19T21:56:07.703Z,16.20
2023-06-19T21:58:36.613Z,16.09
2023-06-19T22:01:05.670Z,16.11
2023-06-19T22:03:35.959Z,15.90
2023-06-19T22:06:05.596Z,15.81
2023-06-19T22:08:42.727Z,15.79
2023-06-19T22:11:11.373Z,16.00
2023-06-19T22:13:40.530Z,16.17
2023-06-19T22:16:09.251Z,16.25
2023-06-19T22:18:37.525Z,16.03
2023-06-19T22:21:06.883Z,16.48
2023-06-19T22:23:38.491Z,16.55
2023-06-19T22:26:06.550Z,16.47
2023-06-19T22:28:34.595Z,16.34
2023-06-19T22:31:03.040Z,16.34
2023-06-19T22:33:33.458Z,16.42
2023-06-19T22:36:01.726Z,16.59
2023-06-19T22:38:41.459Z,17.12
2023-06-19T22:41:10.610Z,17.17
2023-06-19T22:43:40.857Z,17.19
2023-06-19T22:46:08.920Z,17.08
2023-06-19T22:48:44.116Z,17.13
2023-06-19T22:51:14.845Z,17.05
2023-06-19T22:53:47.300Z,16.95
2023-06-19T22:56:17.728Z,16.86
2023-06-19T22:58:45.850Z,16.68
2023-06-19T23:01:13.938Z,16.77
2023-06-19T23:03:43.603Z,16.52
2023-06-19T23:06:18.496Z,16.46
2023-06-19T23:08:50.409Z,16.87
2023-06-19T23:11:18.768Z,16.71
2023-06-19T23:13:46.805Z,16.84
2023-06-19T23:16:14.911Z,16.98
2023-06-19T23:18:44.981Z,16.79
2023-06-19T23:21:12.941Z,16.96
2023-06-19T23:23:41.923Z,17.02
2023-06-19T23:26:12.672Z,17.04
2023-06-19T23:28:41.196Z,17.08
2023-06-19T23:31:09.390Z,17.03
2023-06-19T23:33:37.708Z,17.13
2023-06-19T23:36:06.884Z,17.02
2023-06-19T23:38:35.474Z,17.12
2023-06-19T23:41:04.139Z,17.01
2023-06-19T23:43:33.554Z,16.99
2023-06-19T23:46:05.389Z,16.92
2023-06-19T23:48:33.426Z,16.90
2023-06-19T23:51:01.300Z,17.02
2023-06-19T23:53:29.210Z,16.93
2023-06-19T23:55:57.477Z,16.84
2023-06-19T23:58:25.605Z,16.77
